sensor_id;sensor_type;location;lat;lon;timestamp;P1;durP1;ratioP1;P2;durP2;ratioP2
20593;SDS011;10455;48.732;10.266;2023-03-09T00:00:47;18.97;;;12.03;;
20593;SDS011;10455;48.732;10.266;2023-03-09T00:05:51;18.37;;;11.73;;
20593;SDS011;10455;48.732;10.266;2023-03-09T00:10:56;18.47;;;10.43;;
20593;SDS011;10455;48.732;10.266;2023-03-09T00:16:06;15.17;;;9.57;;
20593;SDS011;10455;48.732;10.266;2023-03-09T00:21:09;11.60;;;8.10;;
20593;SDS011;10455;48.732;10.266;2023-03-09T00:26:36;13.00;;;8.43;;
20593;SDS011;10455;48.732;10.266;2023-03-09T00:31:39;13.90;;;9.10;;
20593;SDS011;10455;48.732;10.266;2023-03-09T00:36:42;18.07;;;10.53;;
20593;SDS011;10455;48.732;10.266;2023-03-09T00:41:45;17.13;;;10.10;;
20593;SDS011;10455;48.732;10.266;2023-03-09T00:46:48;13.37;;;8.50;;
20593;SDS011;10455;48.732;10.266;2023-03-09T00:51:50;17.77;;;10.00;;
20593;SDS011;10455;48.732;10.266;2023-03-09T00:56:53;16.43;;;10.33;;
20593;SDS011;10455;48.732;10.266;2023-03-09T01:01:55;15.87;;;10.37;;
20593;SDS011;10455;48.732;10.266;2023-03-09T01:06:57;17.17;;;10.33;;
20593;SDS011;10455;48.732;10.266;2023-03-09T01:12:00;15.07;;;7.70;;
20593;SDS011;10455;48.732;10.266;2023-03-09T01:17:02;0.20;;;0.20;;
20593;SDS011;10455;48.732;10.266;2023-03-09T01:22:04;0.10;;;0.10;;
20593;SDS011;10455;48.732;10.266;2023-03-09T01:27:07;0.20;;;0.20;;
20593;SDS011;10455;48.732;10.266;2023-03-09T01:32:10;0.20;;;0.20;;
20593;SDS011;10455;48.732;10.266;2023-03-09T01:37:12;0.20;;;0.20;;
20593;SDS011;10455;48.732;10.266;2023-03-09T01:42:15;0.20;;;0.20;;
20593;SDS011;10455;48.732;10.266;2023-03-09T01:47:17;0.30;;;0.30;;
20593;SDS011;10455;48.732;10.266;2023-03-09T01:52:20;0.20;;;0.20;;
20593;SDS011;10455;48.732;10.266;2023-03-09T01:57:28;0.30;;;0.30;;
20593;SDS011;10455;48.732;10.266;2023-03-09T02:02:35;0.30;;;0.30;;
20593;SDS011;10455;48.732;10.266;2023-03-09T02:07:40;0.20;;;0.20;;
20593;SDS011;10455;48.732;10.266;2023-03-09T02:12:49;0.30;;;0.30;;
20593;SDS011;10455;48.732;10.266;2023-03-09T02:17:54;0.30;;;0.30;;
20593;SDS011;10455;48.732;10.266;2023-03-09T02:22:56;0.20;;;0.20;;
20593;SDS011;10455;48.732;10.266;2023-03-09T02:28:00;0.30;;;0.30;;
20593;SDS011;10455;48.732;10.266;2023-03-09T02:33:04;0.20;;;0.20;;
20593;SDS011;10455;48.732;10.266;2023-03-09T02:38:10;0.20;;;0.20;;
20593;SDS011;10455;48.732;10.266;2023-03-09T02:43:15;0.27;;;0.27;;
20593;SDS011;10455;48.732;10.266;2023-03-09T02:48:20;0.20;;;0.20;;
20593;SDS011;10455;48.732;10.266;2023-03-09T02:53:22;0.20;;;0.20;;
20593;SDS011;10455;48.732;10.266;2023-03-09T02:58:25;0.20;;;0.20;;
20593;SDS011;10455;48.732;10.266;2023-03-09T03:03:27;0.30;;;0.30;;
20593;SDS011;10455;48.732;10.266;2023-03-09T03:08:29;0.20;;;0.20;;
20593;SDS011;10455;48.732;10.266;2023-03-09T03:13:33;0.30;;;0.30;;
20593;SDS011;10455;48.732;10.266;2023-03-09T03:18:35;0.27;;;0.27;;
20593;SDS011;10455;48.732;10.266;2023-03-09T03:23:37;0.20;;;0.20;;
20593;SDS011;10455;48.732;10.266;2023-03-09T03:28:41;0.30;;;0.30;;
20593;SDS011;10455;48.732;10.266;2023-03-09T03:33:43;0.30;;;0.30;;
20593;SDS011;10455;48.732;10.266;2023-03-09T03:38:45;0.30;;;0.30;;
20593;SDS011;10455;48.732;10.266;2023-03-09T03:43:48;0.30;;;0.30;;
20593;SDS011;10455;48.732;10.266;2023-03-09T03:48:50;0.30;;;0.30;;
20593;SDS011;10455;48.732;10.266;2023-03-09T03:53:52;0.20;;;0.20;;
20593;SDS011;10455;48.732;10.266;2023-03-09T03:58:56;0.20;;;0.20;;
20593;SDS011;10455;48.732;10.266;2023-03-09T04:03:58;0.30;;;0.30;;
20593;SDS011;10455;48.732;10.266;2023-03-09T04:08:59;0.27;;;0.27;;
20593;SDS011;10455;48.732;10.266;2023-03-09T04:14:03;0.30;;;0.30;;
20593;SDS011;10455;48.732;10.266;2023-03-09T04:19:05;0.30;;;0.30;;
20593;SDS011;10455;48.732;10.266;2023-03-09T04:24:07;0.30;;;0.30;;
20593;SDS011;10455;48.732;10.266;2023-03-09T04:29:10;0.20;;;0.20;;
20593;SDS011;10455;48.732;10.266;2023-03-09T04:34:12;0.30;;;0.30;;
20593;SDS011;10455;48.732;10.266;2023-03-09T04:39:14;0.30;;;0.30;;
20593;SDS011;10455;48.732;10.266;2023-03-09T04:44:17;0.20;;;0.20;;
20593;SDS011;10455;48.732;10.266;2023-03-09T04:49:19;0.23;;;0.23;;
20593;SDS011;10455;48.732;10.266;2023-03-09T04:54:21;0.20;;;0.20;;
20593;SDS011;10455;48.732;10.266;2023-03-09T04:59:25;0.30;;;0.30;;
20593;SDS011;10455;48.732;10.266;2023-03-09T05:04:27;0.30;;;0.30;;
20593;SDS011;10455;48.732;10.266;2023-03-09T05:09:29;0.30;;;0.30;;
20593;SDS011;10455;48.732;10.266;2023-03-09T05:14:32;0.30;;;0.30;;
20593;SDS011;10455;48.732;10.266;2023-03-09T05:19:34;0.30;;;0.30;;
20593;SDS011;10455;48.732;10.266;2023-03-09T05:24:37;0.30;;;0.30;;
20593;SDS011;10455;48.732;10.266;2023-03-09T05:29:41;0.27;;;0.27;;
20593;SDS011;10455;48.732;10.266;2023-03-09T05:34:45;0.30;;;0.30;;
20593;SDS011;10455;48.732;10.266;2023-03-09T05:39:47;0.30;;;0.30;;
20593;SDS011;10455;48.732;10.266;2023-03-09T05:44:51;0.30;;;0.30;;
20593;SDS011;10455;48.732;10.266;2023-03-09T05:49:53;0.30;;;0.30;;
20593;SDS011;10455;48.732;10.266;2023-03-09T05:54:55;0.30;;;0.30;;
20593;SDS011;10455;48.732;10.266;2023-03-09T05:59:58;0.30;;;0.30;;
20593;SDS011;10455;48.732;10.266;2023-03-09T06:05:00;0.30;;;0.30;;
20593;SDS011;10455;48.732;10.266;2023-03-09T06:10:03;0.30;;;0.30;;
20593;SDS011;10455;48.732;10.266;2023-03-09T06:15:07;0.40;;;0.40;;
20593;SDS011;10455;48.732;10.266;2023-03-09T06:20:10;0.40;;;0.40;;
20593;SDS011;10455;48.732;10.266;2023-03-09T06:25:12;0.30;;;0.30;;
20593;SDS011;10455;48.732;10.266;2023-03-09T06:30:16;0.40;;;0.40;;
20593;SDS011;10455;48.732;10.266;2023-03-09T06:35:18;0.50;;;0.50;;
20593;SDS011;10455;48.732;10.266;2023-03-09T06:40:20;0.50;;;0.50;;
20593;SDS011;10455;48.732;10.266;2023-03-09T06:45:23;0.60;;;0.60;;
20593;SDS011;10455;48.732;10.266;2023-03-09T06:50:26;0.60;;;0.60;;
20593;SDS011;10455;48.732;10.266;2023-03-09T06:55:28;0.60;;;0.60;;
20593;SDS011;10455;48.732;10.266;2023-03-09T07:00:31;0.70;;;0.70;;
20593;SDS011;10455;48.732;10.266;2023-03-09T07:05:37;0.80;;;0.80;;
20593;SDS011;10455;48.732;10.266;2023-03-09T07:10:39;0.80;;;0.80;;
20593;SDS011;10455;48.732;10.266;2023-03-09T07:15:42;0.80;;;0.80;;
20593;SDS011;10455;48.732;10.266;2023-03-09T07:20:44;0.70;;;0.70;;
20593;SDS011;10455;48.732;10.266;2023-03-09T07:25:46;0.70;;;0.70;;
20593;SDS011;10455;48.732;10.266;2023-03-09T07:30:50;0.80;;;0.80;;
20593;SDS011;10455;48.732;10.266;2023-03-09T07:35:52;0.80;;;0.80;;
20593;SDS011;10455;48.732;10.266;2023-03-09T07:40:56;0.80;;;0.80;;
20593;SDS011;10455;48.732;10.266;2023-03-09T07:45:59;0.88;;;0.88;;
20593;SDS011;10455;48.732;10.266;2023-03-09T07:51:01;0.90;;;0.90;;
20593;SDS011;10455;48.732;10.266;2023-03-09T07:56:04;0.90;;;0.90;;
20593;SDS011;10455;48.732;10.266;2023-03-09T08:01:15;0.90;;;0.90;;
20593;SDS011;10455;48.732;10.266;2023-03-09T08:06:18;0.90;;;0.90;;
20593;SDS011;10455;48.732;10.266;2023-03-09T08:11:20;0.80;;;0.80;;
20593;SDS011;10455;48.732;10.266;2023-03-09T08:16:24;0.80;;;0.80;;
20593;SDS011;10455;48.732;10.266;2023-03-09T08:21:26;0.90;;;0.90;;
20593;SDS011;10455;48.732;10.266;2023-03-09T08:26:28;0.90;;;0.90;;
20593;SDS011;10455;48.732;10.266;2023-03-09T08:31:31;1.00;;;1.00;;
20593;SDS011;10455;48.732;10.266;2023-03-09T08:36:34;0.90;;;0.90;;
20593;SDS011;10455;48.732;10.266;2023-03-09T08:41:36;0.90;;;0.90;;
20593;SDS011;10455;48.732;10.266;2023-03-09T08:46:40;0.80;;;0.80;;
20593;SDS011;10455;48.732;10.266;2023-03-09T08:51:42;0.90;;;0.90;;
20593;SDS011;10455;48.732;10.266;2023-03-09T08:56:45;0.88;;;0.88;;
20593;SDS011;10455;48.732;10.266;2023-03-09T09:01:49;0.80;;;0.80;;
20593;SDS011;10455;48.732;10.266;2023-03-09T09:06:51;0.90;;;0.90;;
20593;SDS011;10455;48.732;10.266;2023-03-09T09:11:54;0.90;;;0.90;;
20593;SDS011;10455;48.732;10.266;2023-03-09T09:16:58;0.90;;;0.90;;
20593;SDS011;10455;48.732;10.266;2023-03-09T09:22:02;0.82;;;0.82;;
20593;SDS011;10455;48.732;10.266;2023-03-09T09:27:05;1.00;;;1.00;;
20593;SDS011;10455;48.732;10.266;2023-03-09T09:32:09;1.00;;;1.00;;
20593;SDS011;10455;48.732;10.266;2023-03-09T09:37:11;2.13;;;2.03;;
20593;SDS011;10455;48.732;10.266;2023-03-09T09:42:19;1.00;;;1.00;;
20593;SDS011;10455;48.732;10.266;2023-03-09T09:47:29;0.90;;;0.90;;
20593;SDS011;10455;48.732;10.266;2023-03-09T09:52:35;0.90;;;0.90;;
20593;SDS011;10455;48.732;10.266;2023-03-09T09:57:46;1.00;;;1.00;;
20593;SDS011;10455;48.732;10.266;2023-03-09T10:03:00;0.90;;;0.90;;
20593;SDS011;10455;48.732;10.266;2023-03-09T10:08:14;0.90;;;0.90;;
20593;SDS011;10455;48.732;10.266;2023-03-09T10:13:35;1.00;;;1.00;;
20593;SDS011;10455;48.732;10.266;2023-03-09T10:18:44;0.90;;;0.90;;
20593;SDS011;10455;48.732;10.266;2023-03-09T10:23:49;1.10;;;1.10;;
20593;SDS011;10455;48.732;10.266;2023-03-09T10:28:52;0.98;;;0.98;;
20593;SDS011;10455;48.732;10.266;2023-03-09T10:34:02;1.10;;;1.10;;
20593;SDS011;10455;48.732;10.266;2023-03-09T10:39:11;1.02;;;1.02;;
20593;SDS011;10455;48.732;10.266;2023-03-09T10:44:16;1.00;;;1.00;;
20593;SDS011;10455;48.732;10.266;2023-03-09T10:49:22;0.90;;;0.90;;
20593;SDS011;10455;48.732;10.266;2023-03-09T10:54:25;1.00;;;1.00;;
20593;SDS011;10455;48.732;10.266;2023-03-09T10:59:29;0.90;;;0.90;;
20593;SDS011;10455;48.732;10.266;2023-03-09T11:04:36;0.90;;;0.90;;
20593;SDS011;10455;48.732;10.266;2023-03-09T11:09:44;3.08;;;1.63;;
20593;SDS011;10455;48.732;10.266;2023-03-09T11:14:48;2.88;;;1.60;;
20593;SDS011;10455;48.732;10.266;2023-03-09T11:25:34;3.55;;;1.80;;
20593;SDS011;10455;48.732;10.266;2023-03-09T11:30:43;4.20;;;1.55;;
20593;SDS011;10455;48.732;10.266;2023-03-09T11:35:50;7.03;;;2.10;;
20593;SDS011;10455;48.732;10.266;2023-03-09T11:40:57;2.72;;;1.80;;
20593;SDS011;10455;48.732;10.266;2023-03-09T11:46:05;2.38;;;1.60;;
20593;SDS011;10455;48.732;10.266;2023-03-09T11:51:13;2.90;;;1.70;;
20593;SDS011;10455;48.732;10.266;2023-03-09T11:56:20;2.83;;;1.63;;
20593;SDS011;10455;48.732;10.266;2023-03-09T12:01:27;2.53;;;1.70;;
20593;SDS011;10455;48.732;10.266;2023-03-09T12:06:41;2.65;;;1.75;;
20593;SDS011;10455;48.732;10.266;2023-03-09T12:11:49;4.28;;;1.85;;
20593;SDS011;10455;48.732;10.266;2023-03-09T12:16:54;2.33;;;1.60;;
20593;SDS011;10455;48.732;10.266;2023-03-09T12:22:03;2.97;;;1.90;;
20593;SDS011;10455;48.732;10.266;2023-03-09T12:27:12;3.90;;;1.92;;
20593;SDS011;10455;48.732;10.266;2023-03-09T12:43:32;3.88;;;2.05;;
20593;SDS011;10455;48.732;10.266;2023-03-09T12:48:52;3.45;;;1.63;;
20593;SDS011;10455;48.732;10.266;2023-03-09T12:54:00;3.33;;;1.90;;
20593;SDS011;10455;48.732;10.266;2023-03-09T12:59:06;2.90;;;1.75;;
20593;SDS011;10455;48.732;10.266;2023-03-09T13:04:10;2.90;;;1.95;;
20593;SDS011;10455;48.732;10.266;2023-03-09T13:09:19;4.60;;;1.80;;
20593;SDS011;10455;48.732;10.266;2023-03-09T13:20:24;3.10;;;1.52;;
20593;SDS011;10455;48.732;10.266;2023-03-09T13:25:49;2.92;;;1.70;;
20593;SDS011;10455;48.732;10.266;2023-03-09T13:30:52;3.38;;;1.95;;
20593;SDS011;10455;48.732;10.266;2023-03-09T13:35:58;2.25;;;1.75;;
20593;SDS011;10455;48.732;10.266;2023-03-09T13:41:15;6.25;;;3.38;;
20593;SDS011;10455;48.732;10.266;2023-03-09T13:46:25;4.05;;;2.10;;
20593;SDS011;10455;48.732;10.266;2023-03-09T13:51:36;2.20;;;1.65;;
20593;SDS011;10455;48.732;10.266;2023-03-09T13:56:58;3.95;;;2.00;;
20593;SDS011;10455;48.732;10.266;2023-03-09T14:02:01;4.57;;;1.90;;
20593;SDS011;10455;48.732;10.266;2023-03-09T14:07:04;3.45;;;1.73;;
20593;SDS011;10455;48.732;10.266;2023-03-09T14:12:14;4.10;;;1.85;;
20593;SDS011;10455;48.732;10.266;2023-03-09T14:17:21;3.85;;;1.90;;
20593;SDS011;10455;48.732;10.266;2023-03-09T14:22:26;2.95;;;2.00;;
20593;SDS011;10455;48.732;10.266;2023-03-09T14:27:33;6.13;;;2.03;;
20593;SDS011;10455;48.732;10.266;2023-03-09T14:32:35;3.35;;;1.90;;
20593;SDS011;10455;48.732;10.266;2023-03-09T14:37:56;4.45;;;2.08;;
20593;SDS011;10455;48.732;10.266;2023-03-09T14:48:32;4.22;;;2.10;;
20593;SDS011;10455;48.732;10.266;2023-03-09T14:53:34;4.13;;;1.90;;
20593;SDS011;10455;48.732;10.266;2023-03-09T14:58:37;4.88;;;1.90;;
20593;SDS011;10455;48.732;10.266;2023-03-09T15:03:39;4.05;;;2.00;;
20593;SDS011;10455;48.732;10.266;2023-03-09T15:08:41;4.70;;;1.95;;
20593;SDS011;10455;48.732;10.266;2023-03-09T15:13:45;3.95;;;2.38;;
20593;SDS011;10455;48.732;10.266;2023-03-09T15:18:47;4.15;;;2.10;;
20593;SDS011;10455;48.732;10.266;2023-03-09T15:23:49;3.33;;;1.90;;
20593;SDS011;10455;48.732;10.266;2023-03-09T15:28:52;3.40;;;1.90;;
20593;SDS011;10455;48.732;10.266;2023-03-09T15:33:55;4.13;;;1.90;;
20593;SDS011;10455;48.732;10.266;2023-03-09T15:38:57;4.32;;;2.10;;
20593;SDS011;10455;48.732;10.266;2023-03-09T15:44:00;3.80;;;1.90;;
20593;SDS011;10455;48.732;10.266;2023-03-09T15:49:04;4.65;;;1.90;;
20593;SDS011;10455;48.732;10.266;2023-03-09T15:54:07;5.35;;;4.28;;
20593;SDS011;10455;48.732;10.266;2023-03-09T15:59:11;5.93;;;3.75;;
20593;SDS011;10455;48.732;10.266;2023-03-09T16:04:12;2.70;;;1.80;;
20593;SDS011;10455;48.732;10.266;2023-03-09T16:09:15;4.47;;;2.10;;
20593;SDS011;10455;48.732;10.266;2023-03-09T16:14:18;6.13;;;2.10;;
20593;SDS011;10455;48.732;10.266;2023-03-09T16:19:20;4.70;;;2.03;;
20593;SDS011;10455;48.732;10.266;2023-03-09T16:24:22;4.65;;;2.00;;
20593;SDS011;10455;48.732;10.266;2023-03-09T16:29:25;3.95;;;2.17;;
20593;SDS011;10455;48.732;10.266;2023-03-09T16:34:30;3.58;;;2.00;;
20593;SDS011;10455;48.732;10.266;2023-03-09T16:39:32;2.77;;;1.93;;
20593;SDS011;10455;48.732;10.266;2023-03-09T16:44:36;5.23;;;2.03;;
20593;SDS011;10455;48.732;10.266;2023-03-09T16:49:38;5.07;;;2.20;;
20593;SDS011;10455;48.732;10.266;2023-03-09T16:54:40;4.93;;;2.53;;
20593;SDS011;10455;48.732;10.266;2023-03-09T16:59:44;5.23;;;2.07;;
20593;SDS011;10455;48.732;10.266;2023-03-09T17:04:46;6.80;;;2.20;;
20593;SDS011;10455;48.732;10.266;2023-03-09T17:09:48;3.73;;;2.00;;
20593;SDS011;10455;48.732;10.266;2023-03-09T17:14:53;5.37;;;2.90;;
20593;SDS011;10455;48.732;10.266;2023-03-09T17:19:55;4.40;;;2.23;;
20593;SDS011;10455;48.732;10.266;2023-03-09T17:24:57;4.73;;;3.33;;
20593;SDS011;10455;48.732;10.266;2023-03-09T17:30:01;6.13;;;2.47;;
20593;SDS011;10455;48.732;10.266;2023-03-09T17:35:03;5.37;;;2.70;;
20593;SDS011;10455;48.732;10.266;2023-03-09T17:40:09;7.27;;;2.67;;
20593;SDS011;10455;48.732;10.266;2023-03-09T17:45:14;10.33;;;7.83;;
20593;SDS011;10455;48.732;10.266;2023-03-09T17:50:18;6.27;;;3.53;;
20593;SDS011;10455;48.732;10.266;2023-03-09T17:55:20;11.17;;;7.87;;
20593;SDS011;10455;48.732;10.266;2023-03-09T18:00:24;14.37;;;9.07;;
20593;SDS011;10455;48.732;10.266;2023-03-09T18:05:26;16.50;;;9.13;;
20593;SDS011;10455;48.732;10.266;2023-03-09T18:10:29;13.20;;;6.47;;
20593;SDS011;10455;48.732;10.266;2023-03-09T18:15:34;15.07;;;5.70;;
20593;SDS011;10455;48.732;10.266;2023-03-09T18:20:36;12.13;;;8.00;;
20593;SDS011;10455;48.732;10.266;2023-03-09T18:25:38;8.63;;;4.20;;
20593;SDS011;10455;48.732;10.266;2023-03-09T18:30:42;6.63;;;3.33;;
20593;SDS011;10455;48.732;10.266;2023-03-09T18:35:44;6.63;;;3.07;;
20593;SDS011;10455;48.732;10.266;2023-03-09T18:40:46;23.63;;;15.23;;
20593;SDS011;10455;48.732;10.266;2023-03-09T18:45:49;17.43;;;8.97;;
20593;SDS011;10455;48.732;10.266;2023-03-09T18:50:52;125.67;;;57.03;;
20593;SDS011;10455;48.732;10.266;2023-03-09T18:55:55;257.87;;;102.17;;
20593;SDS011;10455;48.732;10.266;2023-03-09T19:01:03;120.90;;;69.20;;
20593;SDS011;10455;48.732;10.266;2023-03-09T19:06:08;11.70;;;4.30;;
20593;SDS011;10455;48.732;10.266;2023-03-09T19:11:12;6.33;;;3.00;;
20593;SDS011;10455;48.732;10.266;2023-03-09T19:16:17;5.87;;;4.10;;
20593;SDS011;10455;48.732;10.266;2023-03-09T19:21:20;12.63;;;4.70;;
20593;SDS011;10455;48.732;10.266;2023-03-09T19:26:23;10.87;;;5.40;;
20593;SDS011;10455;48.732;10.266;2023-03-09T19:31:27;16.53;;;6.77;;
20593;SDS011;10455;48.732;10.266;2023-03-09T19:36:32;10.93;;;4.77;;
20593;SDS011;10455;48.732;10.266;2023-03-09T19:41:34;10.60;;;4.77;;
20593;SDS011;10455;48.732;10.266;2023-03-09T19:46:41;21.67;;;10.77;;
20593;SDS011;10455;48.732;10.266;2023-03-09T19:51:44;12.83;;;7.90;;
20593;SDS011;10455;48.732;10.266;2023-03-09T19:56:51;12.27;;;6.00;;
20593;SDS011;10455;48.732;10.266;2023-03-09T20:01:55;8.10;;;4.27;;
20593;SDS011;10455;48.732;10.266;2023-03-09T20:06:57;13.13;;;4.23;;
20593;SDS011;10455;48.732;10.266;2023-03-09T20:11:59;8.17;;;3.50;;
20593;SDS011;10455;48.732;10.266;2023-03-09T20:17:03;10.07;;;6.13;;
20593;SDS011;10455;48.732;10.266;2023-03-09T20:22:05;25.67;;;14.00;;
20593;SDS011;10455;48.732;10.266;2023-03-09T20:27:07;11.37;;;6.47;;
20593;SDS011;10455;48.732;10.266;2023-03-09T20:32:11;6.70;;;4.40;;
20593;SDS011;10455;48.732;10.266;2023-03-09T20:37:14;7.17;;;4.00;;
20593;SDS011;10455;48.732;10.266;2023-03-09T20:42:17;8.53;;;4.17;;
20593;SDS011;10455;48.732;10.266;2023-03-09T20:47:20;7.77;;;4.17;;
20593;SDS011;10455;48.732;10.266;2023-03-09T20:52:22;10.67;;;6.20;;
20593;SDS011;10455;48.732;10.266;2023-03-09T20:57:25;6.80;;;3.63;;
20593;SDS011;10455;48.732;10.266;2023-03-09T21:02:29;8.43;;;3.67;;
20593;SDS011;10455;48.732;10.266;2023-03-09T21:07:31;6.30;;;3.47;;
20593;SDS011;10455;48.732;10.266;2023-03-09T21:12:33;10.53;;;3.40;;
20593;SDS011;10455;48.732;10.266;2023-03-09T21:17:38;6.67;;;3.73;;
20593;SDS011;10455;48.732;10.266;2023-03-09T21:22:40;13.30;;;4.27;;
20593;SDS011;10455;48.732;10.266;2023-03-09T21:27:42;8.33;;;3.80;;
20593;SDS011;10455;48.732;10.266;2023-03-09T21:32:47;7.50;;;3.73;;
20593;SDS011;10455;48.732;10.266;2023-03-09T21:37:49;6.53;;;4.23;;
20593;SDS011;10455;48.732;10.266;2023-03-09T21:42:51;7.63;;;3.87;;
20593;SDS011;10455;48.732;10.266;2023-03-09T21:47:55;11.73;;;4.23;;
20593;SDS011;10455;48.732;10.266;2023-03-09T21:52:57;8.43;;;3.80;;
20593;SDS011;10455;48.732;10.266;2023-03-09T21:57:59;9.83;;;4.07;;
20593;SDS011;10455;48.732;10.266;2023-03-09T22:03:03;6.30;;;4.10;;
20593;SDS011;10455;48.732;10.266;2023-03-09T22:08:05;13.40;;;5.90;;
20593;SDS011;10455;48.732;10.266;2023-03-09T22:13:07;9.80;;;5.50;;
20593;SDS011;10455;48.732;10.266;2023-03-09T22:18:11;8.83;;;5.10;;
20593;SDS011;10455;48.732;10.266;2023-03-09T22:23:13;9.57;;;5.10;;
20593;SDS011;10455;48.732;10.266;2023-03-09T22:28:15;11.53;;;4.73;;
20593;SDS011;10455;48.732;10.266;2023-03-09T22:33:18;8.17;;;4.73;;
20593;SDS011;10455;48.732;10.266;2023-03-09T22:38:20;8.23;;;4.60;;
20593;SDS011;10455;48.732;10.266;2023-03-09T22:43:22;7.33;;;4.40;;
20593;SDS011;10455;48.732;10.266;2023-03-09T22:48:26;11.93;;;5.33;;
20593;SDS011;10455;48.732;10.266;2023-03-09T22:53:30;13.50;;;5.47;;
20593;SDS011;10455;48.732;10.266;2023-03-09T22:58:33;10.83;;;5.30;;
20593;SDS011;10455;48.732;10.266;2023-03-09T23:03:37;10.53;;;5.80;;
20593;SDS011;10455;48.732;10.266;2023-03-09T23:08:39;13.53;;;7.57;;
20593;SDS011;10455;48.732;10.266;2023-03-09T23:13:44;12.90;;;6.67;;
20593;SDS011;10455;48.732;10.266;2023-03-09T23:18:47;9.57;;;6.73;;
20593;SDS011;10455;48.732;10.266;2023-03-09T23:23:50;13.20;;;6.43;;
20593;SDS011;10455;48.732;10.266;2023-03-09T23:28:52;13.30;;;7.43;;
20593;SDS011;10455;48.732;10.266;2023-03-09T23:33:56;12.77;;;7.57;;
20593;SDS011;10455;48.732;10.266;2023-03-09T23:38:58;13.27;;;7.60;;
20593;SDS011;10455;48.732;10.266;2023-03-09T23:44:01;14.63;;;7.57;;
20593;SDS011;10455;48.732;10.266;2023-03-09T23:49:04;12.93;;;7.10;;
20593;SDS011;10455;48.732;10.266;2023-03-09T23:54:06;11.77;;;5.70;;
20593;SDS011;10455;48.732;10.266;2023-03-09T23:59:08;11.20;;;4.57;;
